sensor_id;sensor_type;location;lat;lon;timestamp;pressure;altitude;pressure_sealevel;temperature;humidity
58534;BME280;44109;52.398;7.024;2023-03-25T00:01:58;99846.06;;;9.08;100.00
58534;BME280;44109;52.398;7.024;2023-03-25T00:04:25;99839.44;;;9.20;100.00
58534;BME280;44109;52.398;7.024;2023-03-25T00:06:54;99842.16;;;9.16;100.00
58534;BME280;44109;52.398;7.024;2023-03-25T00:09:22;99840.66;;;9.22;100.00
58534;BME280;44109;52.398;7.024;2023-03-25T00:11:50;99833.47;;;9.14;100.00
58534;BME280;44109;52.398;7.024;2023-03-25T00:14:18;99829.97;;;9.24;100.00
58534;BME280;44109;52.398;7.024;2023-03-25T00:16:46;99839.03;;;9.21;100.00
58534;BME280;44109;52.398;7.024;2023-03-25T00:19:13;99827.91;;;9.10;100.00
58534;BME280;44109;52.398;7.024;2023-03-25T00:21:42;99845.81;;;9.27;100.00
58534;BME280;44109;52.398;7.024;2023-03-25T00:24:11;99847.44;;;9.35;100.00
58534;BME280;44109;52.398;7.024;2023-03-25T00:26:42;99847.09;;;9.44;100.00
58534;BME280;44109;52.398;7.024;2023-03-25T00:29:11;99811.38;;;9.18;100.00
58534;BME280;44109;52.398;7.024;2023-03-25T00:31:39;99839.03;;;9.21;100.00
58534;BME280;44109;52.398;7.024;2023-03-25T00:34:07;99837.97;;;9.36;100.00
58534;BME280;44109;52.398;7.024;2023-03-25T00:36:39;99850.22;;;9.35;100.00
58534;BME280;44109;52.398;7.024;2023-03-25T00:39:10;99838.34;;;9.31;100.00
58534;BME280;44109;52.398;7.024;2023-03-25T00:41:38;99849.00;;;9.29;100.00
58534;BME280;44109;52.398;7.024;2023-03-25T00:44:08;99839.88;;;9.25;100.00
58534;BME280;44109;52.398;7.024;2023-03-25T00:46:39;99846.31;;;9.44;100.00
58534;BME280;44109;52.398;7.024;2023-03-25T00:49:08;99835.16;;;9.29;100.00
58534;BME280;44109;52.398;7.024;2023-03-25T00:51:37;99824.06;;;9.22;100.00
58534;BME280;44109;52.398;7.024;2023-03-25T00:54:04;99838.78;;;9.37;100.00
58534;BME280;44109;52.398;7.024;2023-03-25T00:56:33;99832.13;;;9.45;100.00
58534;BME280;44109;52.398;7.024;2023-03-25T00:59:01;99791.16;;;9.10;100.00
58534;BME280;44109;52.398;7.024;2023-03-25T01:01:29;99833.63;;;9.39;100.00
58534;BME280;44109;52.398;7.024;2023-03-25T01:03:58;99834.34;;;9.25;100.00
58534;BME280;44109;52.398;7.024;2023-03-25T01:06:27;99833.66;;;9.43;100.00
58534;BME280;44109;52.398;7.024;2023-03-25T01:08:59;99828.09;;;9.39;100.00
58534;BME280;44109;52.398;7.024;2023-03-25T01:11:30;99807.88;;;9.28;100.00
58534;BME280;44109;52.398;7.024;2023-03-25T01:14:02;99831.34;;;9.52;100.00
58534;BME280;44109;52.398;7.024;2023-03-25T01:16:32;99821.03;;;9.45;100.00
58534;BME280;44109;52.398;7.024;2023-03-25T01:19:00;99823.44;;;9.50;100.00
58534;BME280;44109;52.398;7.024;2023-03-25T01:21:27;99827.28;;;9.31;100.00
58534;BME280;44109;52.398;7.024;2023-03-25T01:23:55;99816.22;;;9.31;100.00
58534;BME280;44109;52.398;7.024;2023-03-25T01:26:23;99802.00;;;9.36;100.00
58534;BME280;44109;52.398;7.024;2023-03-25T01:28:50;99819.81;;;9.43;100.00
58534;BME280;44109;52.398;7.024;2023-03-25T01:31:20;99817.13;;;9.57;100.00
58534;BME280;44109;52.398;7.024;2023-03-25T01:33:48;99827.38;;;9.46;100.00
58534;BME280;44109;52.398;7.024;2023-03-25T01:36:16;99824.16;;;9.36;100.00
58534;BME280;44109;52.398;7.024;2023-03-25T01:38:46;99820.94;;;9.34;100.00
58534;BME280;44109;52.398;7.024;2023-03-25T01:41:15;99817.34;;;9.23;100.00
58534;BME280;44109;52.398;7.024;2023-03-25T01:43:59;99807.06;;;9.24;100.00
58534;BME280;44109;52.398;7.024;2023-03-25T01:46:33;99814.56;;;9.23;100.00
58534;BME280;44109;52.398;7.024;2023-03-25T01:49:04;99819.31;;;9.23;100.00
58534;BME280;44109;52.398;7.024;2023-03-25T01:51:37;99811.38;;;9.18;100.00
58534;BME280;44109;52.398;7.024;2023-03-25T01:54:11;99819.69;;;9.21;100.00
58534;BME280;44109;52.398;7.024;2023-03-25T01:56:44;99798.31;;;9.22;100.00
58534;BME280;44109;52.398;7.024;2023-03-25T01:59:17;99808.97;;;9.16;100.00
58534;BME280;44109;52.398;7.024;2023-03-25T02:01:52;99776.41;;;8.92;100.00
58534;BME280;44109;52.398;7.024;2023-03-25T02:04:26;99812.84;;;9.08;100.00
58534;BME280;44109;52.398;7.024;2023-03-25T02:07:04;99780.00;;;8.99;100.00
58534;BME280;44109;52.398;7.024;2023-03-25T02:09:33;99812.09;;;9.11;100.00
58534;BME280;44109;52.398;7.024;2023-03-25T02:12:01;99806.63;;;9.18;100.00
58534;BME280;44109;52.398;7.024;2023-03-25T02:14:30;99805.06;;;9.24;100.00
58534;BME280;44109;52.398;7.024;2023-03-25T02:17:08;99777.31;;;9.10;100.00
58534;BME280;44109;52.398;7.024;2023-03-25T02:20:23;99804.22;;;9.17;100.00
58534;BME280;44109;52.398;7.024;2023-03-25T02:23:56;99802.25;;;9.17;100.00
58534;BME280;44109;52.398;7.024;2023-03-25T02:27:09;99811.69;;;9.09;100.00
58534;BME280;44109;52.398;7.024;2023-03-25T02:30:31;99806.53;;;9.04;100.00
58534;BME280;44109;52.398;7.024;2023-03-25T02:39:46;99802.75;;;8.78;100.00
58534;BME280;44109;52.398;7.024;2023-03-25T02:42:23;99803.50;;;8.75;100.00
58534;BME280;44109;52.398;7.024;2023-03-25T02:44:58;99784.94;;;8.72;100.00
58534;BME280;44109;52.398;7.024;2023-03-25T02:47:31;99800.69;;;8.68;100.00
58534;BME280;44109;52.398;7.024;2023-03-25T02:50:04;99803.88;;;8.70;100.00
58534;BME280;44109;52.398;7.024;2023-03-25T02:52:37;99787.66;;;8.69;100.00
58534;BME280;44109;52.398;7.024;2023-03-25T02:55:11;99797.50;;;8.66;100.00
58534;BME280;44109;52.398;7.024;2023-03-25T02:57:44;99796.81;;;8.76;100.00
58534;BME280;44109;52.398;7.024;2023-03-25T03:00:20;99792.81;;;8.70;100.00
58534;BME280;44109;52.398;7.024;2023-03-25T03:02:54;99800.81;;;8.82;100.00
58534;BME280;44109;52.398;7.024;2023-03-25T03:05:26;99798.72;;;8.69;100.00
58534;BME280;44109;52.398;7.024;2023-03-25T03:08:05;99792.41;;;8.68;100.00
58534;BME280;44109;52.398;7.024;2023-03-25T03:10:49;99790.47;;;8.76;100.00
58534;BME280;44109;52.398;7.024;2023-03-25T03:13:29;99790.88;;;8.74;100.00
58534;BME280;44109;52.398;7.024;2023-03-25T03:16:19;99775.88;;;8.75;100.00
58534;BME280;44109;52.398;7.024;2023-03-25T03:19:01;99788.56;;;8.83;100.00
58534;BME280;44109;52.398;7.024;2023-03-25T03:21:38;99785.78;;;8.80;100.00
58534;BME280;44109;52.398;7.024;2023-03-25T03:24:15;99782.66;;;8.81;100.00
58534;BME280;44109;52.398;7.024;2023-03-25T03:26:54;99784.63;;;8.84;100.00
58534;BME280;44109;52.398;7.024;2023-03-25T03:29:28;99785.03;;;8.83;100.00
58534;BME280;44109;52.398;7.024;2023-03-25T03:32:05;99781.97;;;8.95;100.00
58534;BME280;44109;52.398;7.024;2023-03-25T03:34:40;99784.31;;;8.93;100.00
58534;BME280;44109;52.398;7.024;2023-03-25T03:37:14;99783.91;;;8.95;100.00
58534;BME280;44109;52.398;7.024;2023-03-25T03:39:48;99790.66;;;8.97;100.00
58534;BME280;44109;52.398;7.024;2023-03-25T03:42:23;99754.09;;;8.70;100.00
58534;BME280;44109;52.398;7.024;2023-03-25T03:45:00;99795.38;;;8.93;100.00
58534;BME280;44109;52.398;7.024;2023-03-25T03:47:35;99789.03;;;8.93;100.00
58534;BME280;44109;52.398;7.024;2023-03-25T03:50:10;99795.69;;;8.84;100.00
58534;BME280;44109;52.398;7.024;2023-03-25T03:52:45;99788.22;;;8.88;100.00
58534;BME280;44109;52.398;7.024;2023-03-25T03:55:23;99785.75;;;8.76;100.00
58534;BME280;44109;52.398;7.024;2023-03-25T03:58:00;99809.16;;;8.86;100.00
58534;BME280;44109;52.398;7.024;2023-03-25T04:00:35;99809.34;;;8.63;100.00
58534;BME280;44109;52.398;7.024;2023-03-25T04:03:12;99788.28;;;8.51;100.00
58534;BME280;44109;52.398;7.024;2023-03-25T04:05:53;99808.34;;;8.45;100.00
58534;BME280;44109;52.398;7.024;2023-03-25T04:08:30;99811.47;;;8.39;100.00
58534;BME280;44109;52.398;7.024;2023-03-25T04:11:03;99817.53;;;8.52;100.00
58534;BME280;44109;52.398;7.024;2023-03-25T04:13:39;99810.81;;;8.50;100.00
58534;BME280;44109;52.398;7.024;2023-03-25T04:16:11;99815.06;;;8.44;100.00
58534;BME280;44109;52.398;7.024;2023-03-25T04:18:39;99817.31;;;8.34;100.00
58534;BME280;44109;52.398;7.024;2023-03-25T04:21:08;99811.06;;;8.37;100.00
58534;BME280;44109;52.398;7.024;2023-03-25T04:23:40;99805.75;;;8.25;100.00
58534;BME280;44109;52.398;7.024;2023-03-25T04:26:08;99786.03;;;8.23;100.00
58534;BME280;44109;52.398;7.024;2023-03-25T04:28:37;99796.25;;;8.19;100.00
58534;BME280;44109;52.398;7.024;2023-03-25T04:31:11;99808.97;;;8.27;100.00
58534;BME280;44109;52.398;7.024;2023-03-25T04:33:42;99787.06;;;8.11;100.00
58534;BME280;44109;52.398;7.024;2023-03-25T04:36:13;99793.09;;;8.21;100.00
58534;BME280;44109;52.398;7.024;2023-03-25T04:38:41;99804.78;;;8.07;100.00
58534;BME280;44109;52.398;7.024;2023-03-25T04:41:11;99807.19;;;8.12;100.00
58534;BME280;44109;52.398;7.024;2023-03-25T04:43:41;99813.22;;;8.21;100.00
58534;BME280;44109;52.398;7.024;2023-03-25T04:46:12;99807.56;;;8.44;100.00
58534;BME280;44109;52.398;7.024;2023-03-25T04:48:41;99796.50;;;8.41;100.00
58534;BME280;44109;52.398;7.024;2023-03-25T04:51:10;99801.59;;;8.38;100.00
58534;BME280;44109;52.398;7.024;2023-03-25T04:53:40;99768.53;;;8.12;100.00
58534;BME280;44109;52.398;7.024;2023-03-25T04:56:11;99794.41;;;8.34;100.00
58534;BME280;44109;52.398;7.024;2023-03-25T04:58:44;99799.94;;;8.34;100.00
58534;BME280;44109;52.398;7.024;2023-03-25T05:01:19;99793.19;;;8.28;100.00
58534;BME280;44109;52.398;7.024;2023-03-25T05:03:56;99790.84;;;8.33;100.00
58534;BME280;44109;52.398;7.024;2023-03-25T05:06:31;99792.13;;;8.39;100.00
58534;BME280;44109;52.398;7.024;2023-03-25T05:08:59;99796.47;;;8.37;100.00
58534;BME280;44109;52.398;7.024;2023-03-25T05:11:30;99806.56;;;8.26;100.00
58534;BME280;44109;52.398;7.024;2023-03-25T05:14:01;99804.34;;;8.38;100.00
58534;BME280;44109;52.398;7.024;2023-03-25T05:16:29;99739.59;;;7.99;100.00
58534;BME280;44109;52.398;7.024;2023-03-25T05:18:57;99800.94;;;8.52;100.00
58534;BME280;44109;52.398;7.024;2023-03-25T05:21:24;99794.75;;;8.66;100.00
58534;BME280;44109;52.398;7.024;2023-03-25T05:23:52;99789.66;;;8.68;100.00
58534;BME280;44109;52.398;7.024;2023-03-25T05:26:20;99793.78;;;8.48;100.00
58534;BME280;44109;52.398;7.024;2023-03-25T05:28:47;99795.84;;;8.58;100.00
58534;BME280;44109;52.398;7.024;2023-03-25T05:31:17;99781.63;;;8.56;100.00
58534;BME280;44109;52.398;7.024;2023-03-25T05:33:45;99792.72;;;8.59;100.00
58534;BME280;44109;52.398;7.024;2023-03-25T05:36:13;99795.13;;;8.64;100.00
58534;BME280;44109;52.398;7.024;2023-03-25T05:38:42;99793.44;;;8.53;100.00
58534;BME280;44109;52.398;7.024;2023-03-25T05:41:10;99790.66;;;8.53;100.00
58534;BME280;44109;52.398;7.024;2023-03-25T05:43:41;99790.28;;;8.51;100.00
58534;BME280;44109;52.398;7.024;2023-03-25T05:46:11;99791.22;;;8.69;100.00
58534;BME280;44109;52.398;7.024;2023-03-25T05:48:41;99783.66;;;8.62;100.00
58534;BME280;44109;52.398;7.024;2023-03-25T05:51:11;99792.00;;;8.70;100.00
58534;BME280;44109;52.398;7.024;2023-03-25T05:53:41;99783.41;;;8.78;100.00
58534;BME280;44109;52.398;7.024;2023-03-25T05:56:09;99779.84;;;8.78;100.00
58534;BME280;44109;52.398;7.024;2023-03-25T05:58:37;99790.94;;;8.81;100.00
58534;BME280;44109;52.398;7.024;2023-03-25T06:01:05;99788.56;;;8.83;100.00
58534;BME280;44109;52.398;7.024;2023-03-25T06:03:34;99786.41;;;8.59;100.00
58534;BME280;44109;52.398;7.024;2023-03-25T06:06:03;99794.31;;;8.60;100.00
58534;BME280;44109;52.398;7.024;2023-03-25T06:08:31;99791.16;;;8.62;100.00
58534;BME280;44109;52.398;7.024;2023-03-25T06:11:00;99759.03;;;8.47;100.00
58534;BME280;44109;52.398;7.024;2023-03-25T06:13:28;99775.41;;;8.66;100.00
58534;BME280;44109;52.398;7.024;2023-03-25T06:15:58;99793.16;;;8.65;100.00
58534;BME280;44109;52.398;7.024;2023-03-25T06:18:28;99792.84;;;8.74;100.00
58534;BME280;44109;52.398;7.024;2023-03-25T06:20:55;99785.38;;;8.78;100.00
58534;BME280;44109;52.398;7.024;2023-03-25T06:23:24;99786.09;;;8.71;100.00
58534;BME280;44109;52.398;7.024;2023-03-25T06:25:53;99791.63;;;8.71;100.00
58534;BME280;44109;52.398;7.024;2023-03-25T06:28:21;99784.25;;;8.89;100.00
58534;BME280;44109;52.398;7.024;2023-03-25T06:30:49;99799.28;;;8.88;100.00
58534;BME280;44109;52.398;7.024;2023-03-25T06:33:16;99806.31;;;8.79;100.00
58534;BME280;44109;52.398;7.024;2023-03-25T06:35:46;99797.59;;;8.73;100.00
58534;BME280;44109;52.398;7.024;2023-03-25T06:38:19;99798.63;;;8.58;100.00
58534;BME280;44109;52.398;7.024;2023-03-25T06:40:49;99805.44;;;8.68;100.00
58534;BME280;44109;52.398;7.024;2023-03-25T06:43:16;99809.44;;;8.74;100.00
58534;BME280;44109;52.398;7.024;2023-03-25T06:45:44;99798.06;;;8.82;100.00
58534;BME280;44109;52.398;7.024;2023-03-25T06:48:11;99798.44;;;8.84;100.00
58534;BME280;44109;52.398;7.024;2023-03-25T06:50:39;99809.97;;;8.49;100.00
58534;BME280;44109;52.398;7.024;2023-03-25T06:53:07;99820.41;;;8.63;100.00
58534;BME280;44109;52.398;7.024;2023-03-25T06:55:36;99816.28;;;8.46;100.00
58534;BME280;44109;52.398;7.024;2023-03-25T06:58:06;99771.03;;;8.24;100.00
58534;BME280;44109;52.398;7.024;2023-03-25T07:00:33;99828.34;;;8.68;100.00
58534;BME280;44109;52.398;7.024;2023-03-25T07:03:01;99820.41;;;8.67;100.00
58534;BME280;44109;52.398;7.024;2023-03-25T07:05:28;99837.41;;;8.65;100.00
58534;BME280;44109;52.398;7.024;2023-03-25T07:07:57;99824.00;;;8.71;100.00
58534;BME280;44109;52.398;7.024;2023-03-25T07:10:24;99827.69;;;8.82;100.00
58534;BME280;44109;52.398;7.024;2023-03-25T07:12:52;99826.47;;;8.79;100.00
58534;BME280;44109;52.398;7.024;2023-03-25T07:15:21;99829.06;;;8.61;100.00
58534;BME280;44109;52.398;7.024;2023-03-25T07:17:48;99829.09;;;8.65;100.00
58534;BME280;44109;52.398;7.024;2023-03-25T07:20:16;99820.38;;;8.59;100.00
58534;BME280;44109;52.398;7.024;2023-03-25T07:22:44;99825.22;;;8.73;100.00
58534;BME280;44109;52.398;7.024;2023-03-25T07:25:11;99824.97;;;8.48;100.00
58534;BME280;44109;52.398;7.024;2023-03-25T07:27:39;99829.13;;;8.69;100.00
58534;BME280;44109;52.398;7.024;2023-03-25T07:30:08;99836.38;;;8.84;100.00
58534;BME280;44109;52.398;7.024;2023-03-25T07:32:37;99831.06;;;9.09;100.00
58534;BME280;44109;52.398;7.024;2023-03-25T07:35:05;99822.97;;;9.45;100.00
58534;BME280;44109;52.398;7.024;2023-03-25T07:37:34;99820.00;;;9.75;100.00
58534;BME280;44109;52.398;7.024;2023-03-25T07:40:02;99820.81;;;9.79;100.00
58534;BME280;44109;52.398;7.024;2023-03-25T07:42:29;99823.81;;;10.32;100.00
58534;BME280;44109;52.398;7.024;2023-03-25T07:44:57;99819.09;;;10.51;100.00
58534;BME280;44109;52.398;7.024;2023-03-25T07:47:25;99833.41;;;10.81;100.00
58534;BME280;44109;52.398;7.024;2023-03-25T07:49:54;99834.22;;;10.92;100.00
58534;BME280;44109;52.398;7.024;2023-03-25T07:52:21;99830.22;;;11.08;100.00
58534;BME280;44109;52.398;7.024;2023-03-25T07:54:49;99824.63;;;10.44;100.00
58534;BME280;44109;52.398;7.024;2023-03-25T07:57:17;99828.66;;;10.82;100.00
58534;BME280;44109;52.398;7.024;2023-03-25T07:59:44;99829.84;;;11.09;100.00
58534;BME280;44109;52.398;7.024;2023-03-25T08:02:13;99823.88;;;11.32;100.00
58534;BME280;44109;52.398;7.024;2023-03-25T08:04:41;99822.31;;;11.31;100.00
58534;BME280;44109;52.398;7.024;2023-03-25T08:07:10;99828.66;;;10.96;100.00
58534;BME280;44109;52.398;7.024;2023-03-25T08:09:37;99828.63;;;11.21;100.00
58534;BME280;44109;52.398;7.024;2023-03-25T08:12:07;99834.22;;;10.92;100.00
58534;BME280;44109;52.398;7.024;2023-03-25T08:14:34;99848.28;;;10.16;100.00
58534;BME280;44109;52.398;7.024;2023-03-25T08:17:04;99833.09;;;9.85;100.00
58534;BME280;44109;52.398;7.024;2023-03-25T08:19:32;99849.38;;;9.94;100.00
58534;BME280;44109;52.398;7.024;2023-03-25T08:22:00;99847.59;;;9.57;100.00
58534;BME280;44109;52.398;7.024;2023-03-25T08:24:30;99858.28;;;9.55;100.00
58534;BME280;44109;52.398;7.024;2023-03-25T08:26:58;99860.81;;;9.23;100.00
58534;BME280;44109;52.398;7.024;2023-03-25T08:29:27;99858.06;;;9.23;100.00
58534;BME280;44109;52.398;7.024;2023-03-25T08:31:55;99837.28;;;8.99;100.00
58534;BME280;44109;52.398;7.024;2023-03-25T08:34:22;99852.47;;;9.19;100.00
58534;BME280;44109;52.398;7.024;2023-03-25T08:36:53;99850.53;;;9.23;100.00
58534;BME280;44109;52.398;7.024;2023-03-25T08:39:20;99839.50;;;9.30;100.00
58534;BME280;44109;52.398;7.024;2023-03-25T08:41:56;99846.19;;;9.22;100.00
58534;BME280;44109;52.398;7.024;2023-03-25T08:44:24;99849.00;;;9.29;100.00
58534;BME280;44109;52.398;7.024;2023-03-25T08:46:51;99856.47;;;9.25;100.00
58534;BME280;44109;52.398;7.024;2023-03-25T08:49:19;99862.13;;;9.43;100.00
58534;BME280;44109;52.398;7.024;2023-03-25T08:51:47;99860.81;;;9.23;100.00
58534;BME280;44109;52.398;7.024;2023-03-25T08:54:14;99860.41;;;9.24;100.00
58534;BME280;44109;52.398;7.024;2023-03-25T08:56:42;99851.09;;;8.95;100.00
58534;BME280;44109;52.398;7.024;2023-03-25T08:59:11;99862.28;;;9.09;100.00
58534;BME280;44109;52.398;7.024;2023-03-25T09:01:38;99863.75;;;9.48;100.00
58534;BME280;44109;52.398;7.024;2023-03-25T09:04:07;99858.22;;;9.48;100.00
58534;BME280;44109;52.398;7.024;2023-03-25T09:06:34;99864.34;;;9.20;100.00
58534;BME280;44109;52.398;7.024;2023-03-25T09:09:02;99865.63;;;9.33;100.00
58534;BME280;44109;52.398;7.024;2023-03-25T09:11:31;99865.28;;;9.38;100.00
58534;BME280;44109;52.398;7.024;2023-03-25T09:13:59;99882.97;;;9.81;100.00
58534;BME280;44109;52.398;7.024;2023-03-25T09:16:30;99866.81;;;10.01;100.00
58534;BME280;44109;52.398;7.024;2023-03-25T09:18:59;99858.63;;;10.26;100.00
58534;BME280;44109;52.398;7.024;2023-03-25T09:21:27;99861.69;;;10.00;100.00
58534;BME280;44109;52.398;7.024;2023-03-25T09:23:55;99861.81;;;10.28;100.00
58534;BME280;44109;52.398;7.024;2023-03-25T09:26:22;99853.91;;;10.34;100.00
58534;BME280;44109;52.398;7.024;2023-03-25T09:28:51;99854.72;;;10.41;100.00
58534;BME280;44109;52.398;7.024;2023-03-25T09:31:20;99855.09;;;10.33;100.00
58534;BME280;44109;52.398;7.024;2023-03-25T09:33:49;99869.69;;;10.19;100.00
58534;BME280;44109;52.398;7.024;2023-03-25T09:36:17;99866.63;;;10.46;100.00
58534;BME280;44109;52.398;7.024;2023-03-25T09:38:44;99874.41;;;10.15;100.00
58534;BME280;44109;52.398;7.024;2023-03-25T09:41:24;99869.63;;;10.12;100.00
58534;BME280;44109;52.398;7.024;2023-03-25T09:44:04;99875.34;;;10.48;100.00
58534;BME280;44109;52.398;7.024;2023-03-25T09:46:39;99886.84;;;10.57;100.00
58534;BME280;44109;52.398;7.024;2023-03-25T09:49:13;99876.19;;;10.66;100.00
58534;BME280;44109;52.398;7.024;2023-03-25T09:51:44;99880.59;;;10.92;100.00
58534;BME280;44109;52.398;7.024;2023-03-25T09:54:19;99874.63;;;11.11;100.00
58534;BME280;44109;52.398;7.024;2023-03-25T09:56:52;99888.53;;;11.01;100.00
58534;BME280;44109;52.398;7.024;2023-03-25T09:59:33;99880.97;;;10.98;100.00
58534;BME280;44109;52.398;7.024;2023-03-25T10:02:17;99883.38;;;11.17;100.00
58534;BME280;44109;52.398;7.024;2023-03-25T10:05:09;99892.09;;;11.01;100.00
58534;BME280;44109;52.398;7.024;2023-03-25T10:07:55;99877.72;;;10.53;100.00
58534;BME280;44109;52.398;7.024;2023-03-25T10:10:35;99885.53;;;10.22;100.00
58534;BME280;44109;52.398;7.024;2023-03-25T10:13:15;99875.44;;;9.85;100.00
58534;BME280;44109;52.398;7.024;2023-03-25T10:15:54;99869.44;;;9.76;100.00
58534;BME280;44109;52.398;7.024;2023-03-25T10:18:40;99867.94;;;9.82;100.00
58534;BME280;44109;52.398;7.024;2023-03-25T10:21:18;99885.13;;;10.24;100.00
58534;BME280;44109;52.398;7.024;2023-03-25T10:23:58;99885.56;;;10.29;100.00
58534;BME280;44109;52.398;7.024;2023-03-25T10:26:42;99894.31;;;10.31;100.00
58534;BME280;44109;52.398;7.024;2023-03-25T10:29:13;99890.09;;;10.77;100.00
58534;BME280;44109;52.398;7.024;2023-03-25T10:31:50;99890.50;;;11.29;100.00
58534;BME280;44109;52.398;7.024;2023-03-25T10:34:22;99867.09;;;11.12;100.00
58534;BME280;44109;52.398;7.024;2023-03-25T10:37:00;99876.59;;;11.68;100.00
58534;BME280;44109;52.398;7.024;2023-03-25T10:39:30;99860.69;;;11.79;100.00
58534;BME280;44109;52.398;7.024;2023-03-25T10:42:03;99867.44;;;11.75;100.00
58534;BME280;44109;52.398;7.024;2023-03-25T10:44:43;99865.06;;;11.84;100.00
58534;BME280;44109;52.398;7.024;2023-03-25T10:47:15;99864.72;;;11.42;100.00
58534;BME280;44109;52.398;7.024;2023-03-25T10:49:47;99867.09;;;11.51;100.00
58534;BME280;44109;52.398;7.024;2023-03-25T10:52:19;99837.22;;;12.02;100.00
58534;BME280;44109;52.398;7.024;2023-03-25T10:54:50;99864.22;;;11.98;100.00
58534;BME280;44109;52.398;7.024;2023-03-25T10:57:24;99845.50;;;12.16;100.00
58534;BME280;44109;52.398;7.024;2023-03-25T10:59:58;99856.75;;;12.68;100.00
58534;BME280;44109;52.398;7.024;2023-03-25T11:02:32;99843.28;;;12.59;100.00
58534;BME280;44109;52.398;7.024;2023-03-25T11:05:03;99859.00;;;12.84;100.00
58534;BME280;44109;52.398;7.024;2023-03-25T11:07:36;99853.53;;;12.73;100.00
58534;BME280;44109;52.398;7.024;2023-03-25T11:10:14;99846.00;;;12.70;100.00
58534;BME280;44109;52.398;7.024;2023-03-25T11:12:44;99866.13;;;12.88;100.00
58534;BME280;44109;52.398;7.024;2023-03-25T11:15:15;99860.09;;;13.01;100.00
58534;BME280;44109;52.398;7.024;2023-03-25T11:17:55;99853.91;;;12.72;100.00
58534;BME280;44109;52.398;7.024;2023-03-25T11:20:28;99866.34;;;13.12;100.00
58534;BME280;44109;52.398;7.024;2023-03-25T11:23:04;99872.91;;;12.87;100.00
58534;BME280;44109;52.398;7.024;2023-03-25T11:25:36;99874.06;;;12.93;100.00
58534;BME280;44109;52.398;7.024;2023-03-25T11:28:13;99846.34;;;12.76;100.00
58534;BME280;44109;52.398;7.024;2023-03-25T11:31:13;99876.84;;;12.93;100.00
58534;BME280;44109;52.398;7.024;2023-03-25T11:33:43;99867.78;;;12.82;100.00
58534;BME280;44109;52.398;7.024;2023-03-25T11:36:21;99875.97;;;12.41;100.00
58534;BME280;44109;52.398;7.024;2023-03-25T11:38:57;99882.41;;;12.27;100.00
58534;BME280;44109;52.398;7.024;2023-03-25T11:41:30;99866.63;;;11.88;100.00
58534;BME280;44109;52.398;7.024;2023-03-25T11:44:01;99881.63;;;12.19;100.00
58534;BME280;44109;52.398;7.024;2023-03-25T11:46:30;99878.47;;;12.14;100.00
58534;BME280;44109;52.398;7.024;2023-03-25T11:49:08;99878.91;;;12.09;100.00
58534;BME280;44109;52.398;7.024;2023-03-25T11:51:37;99881.31;;;11.92;100.00
58534;BME280;44109;52.398;7.024;2023-03-25T11:54:07;99890.38;;;12.11;100.00
58534;BME280;44109;52.398;7.024;2023-03-25T11:56:42;99889.25;;;11.98;100.00
58534;BME280;44109;52.398;7.024;2023-03-25T11:59:18;99877.84;;;11.31;100.00
58534;BME280;44109;52.398;7.024;2023-03-25T12:01:52;99884.16;;;11.39;100.00
58534;BME280;44109;52.398;7.024;2023-03-25T12:04:29;99887.72;;;11.39;100.00
58534;BME280;44109;52.398;7.024;2023-03-25T12:06:59;99897.66;;;11.05;100.00
58534;BME280;44109;52.398;7.024;2023-03-25T12:09:30;99890.91;;;11.09;100.00
58534;BME280;44109;52.398;7.024;2023-03-25T12:12:10;99896.47;;;11.27;100.00
58534;BME280;44109;52.398;7.024;2023-03-25T12:15:00;99882.09;;;12.00;100.00
58534;BME280;44109;52.398;7.024;2023-03-25T12:17:50;99878.28;;;12.53;100.00
58534;BME280;44109;52.398;7.024;2023-03-25T12:20:31;99876.78;;;12.38;100.00
58534;BME280;44109;52.398;7.024;2023-03-25T12:23:15;99808.25;;;12.69;100.00
58534;BME280;44109;52.398;7.024;2023-03-25T12:26:01;99871.47;;;13.17;100.00
58534;BME280;44109;52.398;7.024;2023-03-25T12:31:49;99896.03;;;11.57;100.00
58534;BME280;44109;52.398;7.024;2023-03-25T12:34:38;99887.75;;;11.18;100.00
58534;BME280;44109;52.398;7.024;2023-03-25T12:37:22;99881.75;;;10.77;100.00
58534;BME280;44109;52.398;7.024;2023-03-25T12:40:15;99897.38;;;10.15;100.00
58534;BME280;44109;52.398;7.024;2023-03-25T12:43:02;99882.47;;;10.45;100.00
58534;BME280;44109;52.398;7.024;2023-03-25T12:45:48;99887.28;;;10.70;100.00
58534;BME280;44109;52.398;7.024;2023-03-25T12:48:38;99888.88;;;10.74;100.00
58534;BME280;44109;52.398;7.024;2023-03-25T12:51:26;99875.28;;;10.33;100.00
58534;BME280;44109;52.398;7.024;2023-03-25T12:54:14;99873.81;;;10.64;100.00
58534;BME280;44109;52.398;7.024;2023-03-25T12:57:01;99859.34;;;10.16;100.00
58534;BME280;44109;52.398;7.024;2023-03-25T12:59:56;99870.56;;;10.37;100.00
58534;BME280;44109;52.398;7.024;2023-03-25T13:02:57;99866.72;;;10.81;100.00
58534;BME280;44109;52.398;7.024;2023-03-25T13:05:58;99857.97;;;10.83;100.00
58534;BME280;44109;52.398;7.024;2023-03-25T13:08:36;99854.81;;;10.91;100.00
58534;BME280;44109;52.398;7.024;2023-03-25T13:11:14;99854.03;;;10.98;100.00
58534;BME280;44109;52.398;7.024;2023-03-25T13:13:48;99841.34;;;11.18;100.00
58534;BME280;44109;52.398;7.024;2023-03-25T13:16:24;99844.09;;;11.54;100.00
58534;BME280;44109;52.398;7.024;2023-03-25T13:18:59;99843.28;;;11.54;100.00
58534;BME280;44109;52.398;7.024;2023-03-25T13:21:31;99839.97;;;12.05;100.00
58534;BME280;44109;52.398;7.024;2023-03-25T13:24:06;99841.94;;;12.82;100.00
58534;BME280;44109;52.398;7.024;2023-03-25T13:26:40;99825.09;;;13.00;100.00
58534;BME280;44109;52.398;7.024;2023-03-25T13:29:24;99820.19;;;12.66;100.00
58534;BME280;44109;52.398;7.024;2023-03-25T13:32:00;99821.69;;;12.08;100.00
58534;BME280;44109;52.398;7.024;2023-03-25T13:34:35;99835.56;;;12.18;100.00
58534;BME280;44109;52.398;7.024;2023-03-25T13:37:13;99839.56;;;12.07;100.00
58534;BME280;44109;52.398;7.024;2023-03-25T13:39:53;99843.56;;;11.99;100.00